sensor_id;sensor_type;location;lat;lon;timestamp;P1;durP1;ratioP1;P2;durP2;ratioP2
42590;SDS011;28218;53.342;-6.216;2024-03-22T00:01:48;31.00;;;5.90;;
42590;SDS011;28218;53.342;-6.216;2024-03-22T00:04:15;39.55;;;7.43;;
42590;SDS011;28218;53.342;-6.216;2024-03-22T00:06:42;42.83;;;6.97;;
42590;SDS011;28218;53.342;-6.216;2024-03-22T00:09:11;38.67;;;6.18;;
42590;SDS011;28218;53.342;-6.216;2024-03-22T00:11:38;32.90;;;6.47;;
42590;SDS011;28218;53.342;-6.216;2024-03-22T00:14:07;31.75;;;6.80;;
42590;SDS011;28218;53.342;-6.216;2024-03-22T00:16:33;36.08;;;6.10;;
42590;SDS011;28218;53.342;-6.216;2024-03-22T00:19:01;39.47;;;6.15;;
42590;SDS011;28218;53.342;-6.216;2024-03-22T00:21:27;42.17;;;6.78;;
42590;SDS011;28218;53.342;-6.216;2024-03-22T00:23:55;53.65;;;8.68;;
42590;SDS011;28218;53.342;-6.216;2024-03-22T00:26:21;41.53;;;6.20;;
42590;SDS011;28218;53.342;-6.216;2024-03-22T00:28:49;42.10;;;7.78;;
42590;SDS011;28218;53.342;-6.216;2024-03-22T00:31:15;44.58;;;7.00;;
42590;SDS011;28218;53.342;-6.216;2024-03-22T00:33:42;49.15;;;7.70;;
42590;SDS011;28218;53.342;-6.216;2024-03-22T00:36:09;50.17;;;7.57;;
42590;SDS011;28218;53.342;-6.216;2024-03-22T00:38:36;44.90;;;7.72;;
42590;SDS011;28218;53.342;-6.216;2024-03-22T00:41:02;49.50;;;7.75;;
42590;SDS011;28218;53.342;-6.216;2024-03-22T00:43:29;51.05;;;6.82;;
42590;SDS011;28218;53.342;-6.216;2024-03-22T00:45:55;47.60;;;8.00;;
42590;SDS011;28218;53.342;-6.216;2024-03-22T00:48:24;44.20;;;8.65;;
42590;SDS011;28218;53.342;-6.216;2024-03-22T00:50:50;45.28;;;8.25;;
42590;SDS011;28218;53.342;-6.216;2024-03-22T00:53:17;38.08;;;7.68;;
42590;SDS011;28218;53.342;-6.216;2024-03-22T00:55:43;52.80;;;8.18;;
42590;SDS011;28218;53.342;-6.216;2024-03-22T00:58:11;49.65;;;7.65;;
42590;SDS011;28218;53.342;-6.216;2024-03-22T01:00:37;43.85;;;7.43;;
42590;SDS011;28218;53.342;-6.216;2024-03-22T01:03:05;53.70;;;9.43;;
42590;SDS011;28218;53.342;-6.216;2024-03-22T01:05:31;44.75;;;6.97;;
42590;SDS011;28218;53.342;-6.216;2024-03-22T01:07:58;43.60;;;7.63;;
42590;SDS011;28218;53.342;-6.216;2024-03-22T01:10:24;48.83;;;7.45;;
42590;SDS011;28218;53.342;-6.216;2024-03-22T01:12:52;54.42;;;9.20;;
42590;SDS011;28218;53.342;-6.216;2024-03-22T01:15:18;39.08;;;7.47;;
42590;SDS011;28218;53.342;-6.216;2024-03-22T01:17:45;44.47;;;8.57;;
42590;SDS011;28218;53.342;-6.216;2024-03-22T01:20:11;41.25;;;6.80;;
42590;SDS011;28218;53.342;-6.216;2024-03-22T01:22:38;29.98;;;5.72;;
42590;SDS011;28218;53.342;-6.216;2024-03-22T01:25:05;43.65;;;8.35;;
42590;SDS011;28218;53.342;-6.216;2024-03-22T01:27:33;39.80;;;7.07;;
42590;SDS011;28218;53.342;-6.216;2024-03-22T01:29:58;42.47;;;6.60;;
42590;SDS011;28218;53.342;-6.216;2024-03-22T01:32:25;33.58;;;5.75;;
42590;SDS011;28218;53.342;-6.216;2024-03-22T01:34:51;49.35;;;6.97;;
42590;SDS011;28218;53.342;-6.216;2024-03-22T01:37:18;51.75;;;7.20;;
42590;SDS011;28218;53.342;-6.216;2024-03-22T01:39:44;53.85;;;7.53;;
42590;SDS011;28218;53.342;-6.216;2024-03-22T01:42:11;38.33;;;6.80;;
42590;SDS011;28218;53.342;-6.216;2024-03-22T01:44:37;51.80;;;7.68;;
42590;SDS011;28218;53.342;-6.216;2024-03-22T01:47:04;43.22;;;8.52;;
42590;SDS011;28218;53.342;-6.216;2024-03-22T01:49:30;42.20;;;7.25;;
42590;SDS011;28218;53.342;-6.216;2024-03-22T01:51:57;48.78;;;8.63;;
42590;SDS011;28218;53.342;-6.216;2024-03-22T01:54:23;48.58;;;9.20;;
42590;SDS011;28218;53.342;-6.216;2024-03-22T01:56:50;40.38;;;9.35;;
42590;SDS011;28218;53.342;-6.216;2024-03-22T01:59:17;62.42;;;8.48;;
42590;SDS011;28218;53.342;-6.216;2024-03-22T02:01:45;57.53;;;9.63;;
42590;SDS011;28218;53.342;-6.216;2024-03-22T02:04:11;43.45;;;8.00;;
42590;SDS011;28218;53.342;-6.216;2024-03-22T02:06:39;44.25;;;8.25;;
42590;SDS011;28218;53.342;-6.216;2024-03-22T02:09:05;43.40;;;7.80;;
42590;SDS011;28218;53.342;-6.216;2024-03-22T02:11:34;49.28;;;8.93;;
42590;SDS011;28218;53.342;-6.216;2024-03-22T02:14:03;46.65;;;8.73;;
42590;SDS011;28218;53.342;-6.216;2024-03-22T02:16:30;45.38;;;8.40;;
42590;SDS011;28218;53.342;-6.216;2024-03-22T02:18:56;50.58;;;7.85;;
42590;SDS011;28218;53.342;-6.216;2024-03-22T02:21:23;59.80;;;8.98;;
42590;SDS011;28218;53.342;-6.216;2024-03-22T02:23:49;54.72;;;7.95;;
42590;SDS011;28218;53.342;-6.216;2024-03-22T02:26:16;53.28;;;8.70;;
42590;SDS011;28218;53.342;-6.216;2024-03-22T02:28:42;41.25;;;9.52;;
42590;SDS011;28218;53.342;-6.216;2024-03-22T02:31:08;47.40;;;7.80;;
42590;SDS011;28218;53.342;-6.216;2024-03-22T02:33:34;66.03;;;9.57;;
42590;SDS011;28218;53.342;-6.216;2024-03-22T02:36:02;40.42;;;7.53;;
42590;SDS011;28218;53.342;-6.216;2024-03-22T02:38:28;53.25;;;8.50;;
42590;SDS011;28218;53.342;-6.216;2024-03-22T02:40:55;82.03;;;10.25;;
42590;SDS011;28218;53.342;-6.216;2024-03-22T02:43:20;48.85;;;7.55;;
42590;SDS011;28218;53.342;-6.216;2024-03-22T02:45:47;44.88;;;6.78;;
42590;SDS011;28218;53.342;-6.216;2024-03-22T02:48:13;46.17;;;7.80;;
42590;SDS011;28218;53.342;-6.216;2024-03-22T02:50:41;49.20;;;7.07;;
42590;SDS011;28218;53.342;-6.216;2024-03-22T02:53:07;46.15;;;7.13;;
42590;SDS011;28218;53.342;-6.216;2024-03-22T02:55:38;46.38;;;7.40;;
42590;SDS011;28218;53.342;-6.216;2024-03-22T02:58:05;46.50;;;7.47;;
42590;SDS011;28218;53.342;-6.216;2024-03-22T03:00:36;46.20;;;6.72;;
42590;SDS011;28218;53.342;-6.216;2024-03-22T03:03:07;48.72;;;7.05;;
42590;SDS011;28218;53.342;-6.216;2024-03-22T03:05:34;48.33;;;6.80;;
42590;SDS011;28218;53.342;-6.216;2024-03-22T03:08:00;42.88;;;7.43;;
42590;SDS011;28218;53.342;-6.216;2024-03-22T03:10:28;49.90;;;9.32;;
42590;SDS011;28218;53.342;-6.216;2024-03-22T03:12:55;45.72;;;8.18;;
42590;SDS011;28218;53.342;-6.216;2024-03-22T03:15:22;48.38;;;7.32;;
42590;SDS011;28218;53.342;-6.216;2024-03-22T03:17:48;40.90;;;7.35;;
42590;SDS011;28218;53.342;-6.216;2024-03-22T03:20:17;42.40;;;6.97;;
42590;SDS011;28218;53.342;-6.216;2024-03-22T03:22:43;41.20;;;6.55;;
42590;SDS011;28218;53.342;-6.216;2024-03-22T03:25:10;56.75;;;7.25;;
42590;SDS011;28218;53.342;-6.216;2024-03-22T03:27:36;50.72;;;7.55;;
42590;SDS011;28218;53.342;-6.216;2024-03-22T03:30:03;36.78;;;6.07;;
42590;SDS011;28218;53.342;-6.216;2024-03-22T03:32:30;48.17;;;8.75;;
42590;SDS011;28218;53.342;-6.216;2024-03-22T03:34:56;41.83;;;6.75;;
42590;SDS011;28218;53.342;-6.216;2024-03-22T03:37:23;37.67;;;6.90;;
42590;SDS011;28218;53.342;-6.216;2024-03-22T03:39:49;44.13;;;5.80;;
42590;SDS011;28218;53.342;-6.216;2024-03-22T03:42:15;49.50;;;7.80;;
42590;SDS011;28218;53.342;-6.216;2024-03-22T03:44:41;44.03;;;6.00;;
42590;SDS011;28218;53.342;-6.216;2024-03-22T03:47:08;40.58;;;6.85;;
42590;SDS011;28218;53.342;-6.216;2024-03-22T03:49:34;36.55;;;5.85;;
42590;SDS011;28218;53.342;-6.216;2024-03-22T03:52:02;44.58;;;6.65;;
42590;SDS011;28218;53.342;-6.216;2024-03-22T03:54:28;34.92;;;5.38;;
42590;SDS011;28218;53.342;-6.216;2024-03-22T03:56:55;33.03;;;7.00;;
42590;SDS011;28218;53.342;-6.216;2024-03-22T03:59:21;34.88;;;5.32;;
42590;SDS011;28218;53.342;-6.216;2024-03-22T04:01:48;42.65;;;5.90;;
42590;SDS011;28218;53.342;-6.216;2024-03-22T04:04:14;43.88;;;5.68;;
42590;SDS011;28218;53.342;-6.216;2024-03-22T04:06:43;33.10;;;4.90;;
42590;SDS011;28218;53.342;-6.216;2024-03-22T04:09:10;45.60;;;5.85;;
42590;SDS011;28218;53.342;-6.216;2024-03-22T04:11:37;46.95;;;6.68;;
42590;SDS011;28218;53.342;-6.216;2024-03-22T04:14:03;36.67;;;5.38;;
42590;SDS011;28218;53.342;-6.216;2024-03-22T04:16:31;33.63;;;6.68;;
42590;SDS011;28218;53.342;-6.216;2024-03-22T04:18:57;38.25;;;6.93;;
42590;SDS011;28218;53.342;-6.216;2024-03-22T04:21:24;35.75;;;5.90;;
42590;SDS011;28218;53.342;-6.216;2024-03-22T04:23:50;40.15;;;5.93;;
42590;SDS011;28218;53.342;-6.216;2024-03-22T04:26:18;37.58;;;6.25;;
42590;SDS011;28218;53.342;-6.216;2024-03-22T04:28:44;33.45;;;4.93;;
42590;SDS011;28218;53.342;-6.216;2024-03-22T04:31:11;49.17;;;6.75;;
42590;SDS011;28218;53.342;-6.216;2024-03-22T04:33:37;31.83;;;5.40;;
42590;SDS011;28218;53.342;-6.216;2024-03-22T04:36:04;32.22;;;5.80;;
42590;SDS011;28218;53.342;-6.216;2024-03-22T04:38:31;41.55;;;5.15;;
42590;SDS011;28218;53.342;-6.216;2024-03-22T04:40:58;41.90;;;7.85;;
42590;SDS011;28218;53.342;-6.216;2024-03-22T04:43:27;39.30;;;7.22;;
42590;SDS011;28218;53.342;-6.216;2024-03-22T04:45:54;38.83;;;5.55;;
42590;SDS011;28218;53.342;-6.216;2024-03-22T04:48:21;40.42;;;5.93;;
42590;SDS011;28218;53.342;-6.216;2024-03-22T04:50:49;45.97;;;6.78;;
42590;SDS011;28218;53.342;-6.216;2024-03-22T04:53:17;35.17;;;6.65;;
42590;SDS011;28218;53.342;-6.216;2024-03-22T04:55:46;35.17;;;7.05;;
42590;SDS011;28218;53.342;-6.216;2024-03-22T04:58:14;36.75;;;6.75;;
42590;SDS011;28218;53.342;-6.216;2024-03-22T05:00:43;34.17;;;5.63;;
42590;SDS011;28218;53.342;-6.216;2024-03-22T05:03:09;23.55;;;5.30;;
42590;SDS011;28218;53.342;-6.216;2024-03-22T05:05:37;28.08;;;5.57;;
42590;SDS011;28218;53.342;-6.216;2024-03-22T05:08:04;25.70;;;4.90;;
42590;SDS011;28218;53.342;-6.216;2024-03-22T05:10:32;30.00;;;5.18;;
42590;SDS011;28218;53.342;-6.216;2024-03-22T05:12:58;32.83;;;4.55;;
42590;SDS011;28218;53.342;-6.216;2024-03-22T05:15:26;33.45;;;5.60;;
42590;SDS011;28218;53.342;-6.216;2024-03-22T05:17:52;33.45;;;5.82;;
42590;SDS011;28218;53.342;-6.216;2024-03-22T05:20:20;27.98;;;4.75;;
42590;SDS011;28218;53.342;-6.216;2024-03-22T05:22:47;30.90;;;5.70;;
42590;SDS011;28218;53.342;-6.216;2024-03-22T05:25:14;33.30;;;5.45;;
42590;SDS011;28218;53.342;-6.216;2024-03-22T05:27:41;26.95;;;5.38;;
42590;SDS011;28218;53.342;-6.216;2024-03-22T05:30:09;29.08;;;4.43;;
42590;SDS011;28218;53.342;-6.216;2024-03-22T05:32:36;27.30;;;4.95;;
42590;SDS011;28218;53.342;-6.216;2024-03-22T05:35:04;36.28;;;4.78;;
42590;SDS011;28218;53.342;-6.216;2024-03-22T05:37:30;22.35;;;4.07;;
42590;SDS011;28218;53.342;-6.216;2024-03-22T05:39:58;24.90;;;4.47;;
42590;SDS011;28218;53.342;-6.216;2024-03-22T05:42:24;26.25;;;4.72;;
42590;SDS011;28218;53.342;-6.216;2024-03-22T05:44:51;29.25;;;4.95;;
42590;SDS011;28218;53.342;-6.216;2024-03-22T05:47:18;32.53;;;4.32;;
42590;SDS011;28218;53.342;-6.216;2024-03-22T05:49:46;34.45;;;5.13;;
42590;SDS011;28218;53.342;-6.216;2024-03-22T05:52:13;28.75;;;5.18;;
42590;SDS011;28218;53.342;-6.216;2024-03-22T05:54:40;36.42;;;4.88;;
42590;SDS011;28218;53.342;-6.216;2024-03-22T05:57:06;30.63;;;4.65;;
42590;SDS011;28218;53.342;-6.216;2024-03-22T05:59:34;30.00;;;5.18;;
42590;SDS011;28218;53.342;-6.216;2024-03-22T06:02:00;35.17;;;5.53;;
42590;SDS011;28218;53.342;-6.216;2024-03-22T06:04:27;30.85;;;5.18;;
42590;SDS011;28218;53.342;-6.216;2024-03-22T06:06:54;30.63;;;4.50;;
42590;SDS011;28218;53.342;-6.216;2024-03-22T06:09:21;26.55;;;4.07;;
42590;SDS011;28218;53.342;-6.216;2024-03-22T06:11:50;29.35;;;4.88;;
42590;SDS011;28218;53.342;-6.216;2024-03-22T06:14:17;32.42;;;5.25;;
42590;SDS011;28218;53.342;-6.216;2024-03-22T06:16:43;26.50;;;4.25;;
42590;SDS011;28218;53.342;-6.216;2024-03-22T06:19:10;29.98;;;4.63;;
42590;SDS011;28218;53.342;-6.216;2024-03-22T06:21:36;33.80;;;5.70;;
42590;SDS011;28218;53.342;-6.216;2024-03-22T06:24:03;26.40;;;4.22;;
42590;SDS011;28218;53.342;-6.216;2024-03-22T06:26:29;34.58;;;5.80;;
42590;SDS011;28218;53.342;-6.216;2024-03-22T06:28:56;33.70;;;5.13;;
42590;SDS011;28218;53.342;-6.216;2024-03-22T06:31:22;27.63;;;5.80;;
42590;SDS011;28218;53.342;-6.216;2024-03-22T06:33:49;32.38;;;6.93;;
42590;SDS011;28218;53.342;-6.216;2024-03-22T06:36:15;25.27;;;4.47;;
42590;SDS011;28218;53.342;-6.216;2024-03-22T06:38:43;27.42;;;5.07;;
42590;SDS011;28218;53.342;-6.216;2024-03-22T06:41:09;27.38;;;5.40;;
42590;SDS011;28218;53.342;-6.216;2024-03-22T06:43:36;27.10;;;4.13;;
42590;SDS011;28218;53.342;-6.216;2024-03-22T06:46:02;34.30;;;5.60;;
42590;SDS011;28218;53.342;-6.216;2024-03-22T06:48:29;20.05;;;3.33;;
42590;SDS011;28218;53.342;-6.216;2024-03-22T06:50:55;31.98;;;5.90;;
42590;SDS011;28218;53.342;-6.216;2024-03-22T06:53:22;25.52;;;5.47;;
42590;SDS011;28218;53.342;-6.216;2024-03-22T06:55:48;35.97;;;3.97;;
42590;SDS011;28218;53.342;-6.216;2024-03-22T06:58:15;27.33;;;4.50;;
42590;SDS011;28218;53.342;-6.216;2024-03-22T07:00:41;30.42;;;4.65;;
42590;SDS011;28218;53.342;-6.216;2024-03-22T07:03:08;28.33;;;4.15;;
42590;SDS011;28218;53.342;-6.216;2024-03-22T07:05:34;20.23;;;3.85;;
42590;SDS011;28218;53.342;-6.216;2024-03-22T07:08:01;31.98;;;4.85;;
42590;SDS011;28218;53.342;-6.216;2024-03-22T07:10:27;27.42;;;5.03;;
42590;SDS011;28218;53.342;-6.216;2024-03-22T07:12:54;19.75;;;3.92;;
42590;SDS011;28218;53.342;-6.216;2024-03-22T07:15:21;16.02;;;3.78;;
42590;SDS011;28218;53.342;-6.216;2024-03-22T07:17:50;16.58;;;3.22;;
42590;SDS011;28218;53.342;-6.216;2024-03-22T07:20:16;21.20;;;3.30;;
42590;SDS011;28218;53.342;-6.216;2024-03-22T07:22:44;21.63;;;3.25;;
42590;SDS011;28218;53.342;-6.216;2024-03-22T07:25:11;21.08;;;3.70;;
42590;SDS011;28218;53.342;-6.216;2024-03-22T07:27:38;18.13;;;3.60;;
42590;SDS011;28218;53.342;-6.216;2024-03-22T07:30:04;33.22;;;4.30;;
42590;SDS011;28218;53.342;-6.216;2024-03-22T07:32:32;16.10;;;2.95;;
42590;SDS011;28218;53.342;-6.216;2024-03-22T07:34:58;15.30;;;3.40;;
42590;SDS011;28218;53.342;-6.216;2024-03-22T07:37:25;21.15;;;4.63;;
42590;SDS011;28218;53.342;-6.216;2024-03-22T07:39:51;20.63;;;3.30;;
42590;SDS011;28218;53.342;-6.216;2024-03-22T07:42:18;16.83;;;3.65;;
42590;SDS011;28218;53.342;-6.216;2024-03-22T07:44:45;14.27;;;3.47;;
42590;SDS011;28218;53.342;-6.216;2024-03-22T07:47:12;13.30;;;2.72;;
42590;SDS011;28218;53.342;-6.216;2024-03-22T07:49:38;19.60;;;3.60;;
42590;SDS011;28218;53.342;-6.216;2024-03-22T07:52:05;24.50;;;4.10;;
42590;SDS011;28218;53.342;-6.216;2024-03-22T07:54:31;24.95;;;2.90;;
42590;SDS011;28218;53.342;-6.216;2024-03-22T07:56:58;18.70;;;3.35;;
42590;SDS011;28218;53.342;-6.216;2024-03-22T07:59:24;19.13;;;2.55;;
42590;SDS011;28218;53.342;-6.216;2024-03-22T08:01:51;26.83;;;3.88;;
42590;SDS011;28218;53.342;-6.216;2024-03-22T08:04:17;25.02;;;4.97;;
42590;SDS011;28218;53.342;-6.216;2024-03-22T08:06:44;16.67;;;3.35;;
42590;SDS011;28218;53.342;-6.216;2024-03-22T08:09:11;15.75;;;2.92;;
42590;SDS011;28218;53.342;-6.216;2024-03-22T08:11:38;24.17;;;3.35;;
42590;SDS011;28218;53.342;-6.216;2024-03-22T08:14:04;15.65;;;3.22;;
42590;SDS011;28218;53.342;-6.216;2024-03-22T08:16:31;8.63;;;1.98;;
42590;SDS011;28218;53.342;-6.216;2024-03-22T08:18:57;21.65;;;4.03;;
42590;SDS011;28218;53.342;-6.216;2024-03-22T08:21:24;19.23;;;3.10;;
42590;SDS011;28218;53.342;-6.216;2024-03-22T08:23:51;17.80;;;2.30;;
42590;SDS011;28218;53.342;-6.216;2024-03-22T08:26:19;16.63;;;2.85;;
42590;SDS011;28218;53.342;-6.216;2024-03-22T08:28:46;22.13;;;3.80;;
42590;SDS011;28218;53.342;-6.216;2024-03-22T08:31:13;16.85;;;3.20;;
42590;SDS011;28218;53.342;-6.216;2024-03-22T08:33:40;22.85;;;4.97;;
42590;SDS011;28218;53.342;-6.216;2024-03-22T08:36:07;23.77;;;3.13;;
42590;SDS011;28218;53.342;-6.216;2024-03-22T08:38:33;17.17;;;4.00;;
42590;SDS011;28218;53.342;-6.216;2024-03-22T08:41:00;23.95;;;4.47;;
42590;SDS011;28218;53.342;-6.216;2024-03-22T08:43:26;14.43;;;3.55;;
42590;SDS011;28218;53.342;-6.216;2024-03-22T08:45:54;19.45;;;3.17;;
42590;SDS011;28218;53.342;-6.216;2024-03-22T08:48:21;18.02;;;3.00;;
42590;SDS011;28218;53.342;-6.216;2024-03-22T08:50:48;19.35;;;3.30;;
42590;SDS011;28218;53.342;-6.216;2024-03-22T08:53:14;22.05;;;3.95;;
42590;SDS011;28218;53.342;-6.216;2024-03-22T08:55:45;26.42;;;3.83;;
42590;SDS011;28218;53.342;-6.216;2024-03-22T08:58:12;12.10;;;3.33;;
42590;SDS011;28218;53.342;-6.216;2024-03-22T09:00:43;20.27;;;4.50;;
42590;SDS011;28218;53.342;-6.216;2024-03-22T09:03:10;24.30;;;3.67;;
42590;SDS011;28218;53.342;-6.216;2024-03-22T09:05:38;18.02;;;3.03;;
42590;SDS011;28218;53.342;-6.216;2024-03-22T09:08:04;20.00;;;3.58;;
42590;SDS011;28218;53.342;-6.216;2024-03-22T09:10:32;24.40;;;4.72;;
42590;SDS011;28218;53.342;-6.216;2024-03-22T09:12:58;25.73;;;4.35;;
42590;SDS011;28218;53.342;-6.216;2024-03-22T09:15:25;20.95;;;3.33;;
42590;SDS011;28218;53.342;-6.216;2024-03-22T09:17:54;32.85;;;7.05;;
42590;SDS011;28218;53.342;-6.216;2024-03-22T09:20:21;21.65;;;3.88;;
42590;SDS011;28218;53.342;-6.216;2024-03-22T09:22:47;17.92;;;4.18;;
42590;SDS011;28218;53.342;-6.216;2024-03-22T09:25:14;24.45;;;3.63;;
42590;SDS011;28218;53.342;-6.216;2024-03-22T09:27:40;19.50;;;4.13;;
42590;SDS011;28218;53.342;-6.216;2024-03-22T09:30:07;21.50;;;3.58;;
42590;SDS011;28218;53.342;-6.216;2024-03-22T09:32:35;15.32;;;3.38;;
42590;SDS011;28218;53.342;-6.216;2024-03-22T09:35:02;24.73;;;3.67;;
42590;SDS011;28218;53.342;-6.216;2024-03-22T09:37:28;11.35;;;2.83;;
42590;SDS011;28218;53.342;-6.216;2024-03-22T09:39:55;19.75;;;3.20;;
42590;SDS011;28218;53.342;-6.216;2024-03-22T09:42:21;24.88;;;3.58;;
42590;SDS011;28218;53.342;-6.216;2024-03-22T09:44:50;25.23;;;4.22;;
42590;SDS011;28218;53.342;-6.216;2024-03-22T09:47:17;20.52;;;4.07;;
42590;SDS011;28218;53.342;-6.216;2024-03-22T09:49:46;21.27;;;3.55;;
42590;SDS011;28218;53.342;-6.216;2024-03-22T09:52:14;16.75;;;3.05;;
42590;SDS011;28218;53.342;-6.216;2024-03-22T09:54:43;20.08;;;3.80;;
42590;SDS011;28218;53.342;-6.216;2024-03-22T09:57:11;18.25;;;3.65;;
42590;SDS011;28218;53.342;-6.216;2024-03-22T09:59:42;22.40;;;3.63;;
42590;SDS011;28218;53.342;-6.216;2024-03-22T10:02:10;20.85;;;3.03;;
42590;SDS011;28218;53.342;-6.216;2024-03-22T10:04:43;15.82;;;3.58;;
42590;SDS011;28218;53.342;-6.216;2024-03-22T10:07:09;21.40;;;3.83;;
42590;SDS011;28218;53.342;-6.216;2024-03-22T10:09:36;27.90;;;3.08;;
42590;SDS011;28218;53.342;-6.216;2024-03-22T10:12:03;18.27;;;3.38;;
42590;SDS011;28218;53.342;-6.216;2024-03-22T10:14:30;22.63;;;3.85;;
42590;SDS011;28218;53.342;-6.216;2024-03-22T10:16:56;16.77;;;2.83;;
42590;SDS011;28218;53.342;-6.216;2024-03-22T10:19:24;14.63;;;3.10;;
42590;SDS011;28218;53.342;-6.216;2024-03-22T10:22:03;21.60;;;3.13;;
42590;SDS011;28218;53.342;-6.216;2024-03-22T10:24:30;15.93;;;2.80;;
42590;SDS011;28218;53.342;-6.216;2024-03-22T10:26:58;20.63;;;3.20;;
42590;SDS011;28218;53.342;-6.216;2024-03-22T10:29:25;18.60;;;3.13;;
42590;SDS011;28218;53.342;-6.216;2024-03-22T10:31:52;11.40;;;2.80;;
42590;SDS011;28218;53.342;-6.216;2024-03-22T10:34:24;16.25;;;2.45;;
42590;SDS011;28218;53.342;-6.216;2024-03-22T10:36:50;10.13;;;2.47;;
42590;SDS011;28218;53.342;-6.216;2024-03-22T10:39:18;16.30;;;2.35;;
42590;SDS011;28218;53.342;-6.216;2024-03-22T10:41:47;11.70;;;2.35;;
42590;SDS011;28218;53.342;-6.216;2024-03-22T10:44:15;11.05;;;2.72;;
42590;SDS011;28218;53.342;-6.216;2024-03-22T10:46:45;16.08;;;2.85;;
42590;SDS011;28218;53.342;-6.216;2024-03-22T10:49:15;9.48;;;2.55;;
42590;SDS011;28218;53.342;-6.216;2024-03-22T10:51:43;12.48;;;2.75;;
42590;SDS011;28218;53.342;-6.216;2024-03-22T10:54:13;16.20;;;3.30;;
42590;SDS011;28218;53.342;-6.216;2024-03-22T10:56:44;15.73;;;3.00;;
42590;SDS011;28218;53.342;-6.216;2024-03-22T10:59:14;23.67;;;2.70;;
42590;SDS011;28218;53.342;-6.216;2024-03-22T11:01:51;26.20;;;3.88;;
42590;SDS011;28218;53.342;-6.216;2024-03-22T11:04:19;15.45;;;3.15;;
42590;SDS011;28218;53.342;-6.216;2024-03-22T11:06:48;17.02;;;3.22;;
42590;SDS011;28218;53.342;-6.216;2024-03-22T11:09:22;20.10;;;3.03;;
42590;SDS011;28218;53.342;-6.216;2024-03-22T11:11:51;12.90;;;2.42;;
42590;SDS011;28218;53.342;-6.216;2024-03-22T11:14:19;11.85;;;2.25;;
42590;SDS011;28218;53.342;-6.216;2024-03-22T11:16:49;10.82;;;2.70;;
42590;SDS011;28218;53.342;-6.216;2024-03-22T11:19:16;11.82;;;2.45;;
42590;SDS011;28218;53.342;-6.216;2024-03-22T11:21:42;11.23;;;2.63;;
42590;SDS011;28218;53.342;-6.216;2024-03-22T11:24:09;19.00;;;2.70;;
42590;SDS011;28218;53.342;-6.216;2024-03-22T11:26:36;13.00;;;2.88;;
42590;SDS011;28218;53.342;-6.216;2024-03-22T11:29:04;12.35;;;2.72;;
42590;SDS011;28218;53.342;-6.216;2024-03-22T11:31:30;10.65;;;2.38;;
42590;SDS011;28218;53.342;-6.216;2024-03-22T11:33:57;15.32;;;3.28;;
42590;SDS011;28218;53.342;-6.216;2024-03-22T11:36:23;13.32;;;2.83;;
42590;SDS011;28218;53.342;-6.216;2024-03-22T11:38:50;10.93;;;2.20;;
42590;SDS011;28218;53.342;-6.216;2024-03-22T11:41:18;10.80;;;2.30;;
42590;SDS011;28218;53.342;-6.216;2024-03-22T11:43:49;12.48;;;2.78;;
42590;SDS011;28218;53.342;-6.216;2024-03-22T11:46:16;14.15;;;3.40;;
42590;SDS011;28218;53.342;-6.216;2024-03-22T11:48:44;16.02;;;2.20;;
42590;SDS011;28218;53.342;-6.216;2024-03-22T11:51:09;13.63;;;2.40;;
42590;SDS011;28218;53.342;-6.216;2024-03-22T11:53:37;13.77;;;2.55;;
42590;SDS011;28218;53.342;-6.216;2024-03-22T11:56:04;7.68;;;2.53;;
42590;SDS011;28218;53.342;-6.216;2024-03-22T11:58:31;12.55;;;2.53;;
42590;SDS011;28218;53.342;-6.216;2024-03-22T12:00:57;12.52;;;2.55;;
42590;SDS011;28218;53.342;-6.216;2024-03-22T12:03:25;15.88;;;2.53;;
42590;SDS011;28218;53.342;-6.216;2024-03-22T12:05:52;16.85;;;3.92;;
42590;SDS011;28218;53.342;-6.216;2024-03-22T12:08:21;11.80;;;2.53;;
42590;SDS011;28218;53.342;-6.216;2024-03-22T12:10:47;16.70;;;2.83;;
42590;SDS011;28218;53.342;-6.216;2024-03-22T12:13:14;7.40;;;2.30;;
42590;SDS011;28218;53.342;-6.216;2024-03-22T12:15:40;20.05;;;2.92;;
42590;SDS011;28218;53.342;-6.216;2024-03-22T12:18:07;13.57;;;2.38;;
42590;SDS011;28218;53.342;-6.216;2024-03-22T12:20:33;10.68;;;2.67;;
42590;SDS011;28218;53.342;-6.216;2024-03-22T12:23:00;16.75;;;2.55;;
42590;SDS011;28218;53.342;-6.216;2024-03-22T12:25:26;15.77;;;2.58;;
42590;SDS011;28218;53.342;-6.216;2024-03-22T12:27:53;13.20;;;2.50;;
42590;SDS011;28218;53.342;-6.216;2024-03-22T12:30:19;13.45;;;2.15;;
42590;SDS011;28218;53.342;-6.216;2024-03-22T12:32:46;10.15;;;2.20;;
42590;SDS011;28218;53.342;-6.216;2024-03-22T12:35:11;5.65;;;1.65;;
42590;SDS011;28218;53.342;-6.216;2024-03-22T12:37:38;9.73;;;2.35;;
42590;SDS011;28218;53.342;-6.216;2024-03-22T12:40:05;6.20;;;1.70;;
42590;SDS011;28218;53.342;-6.216;2024-03-22T12:42:34;11.10;;;2.10;;
42590;SDS011;28218;53.342;-6.216;2024-03-22T12:45:00;14.35;;;2.63;;
42590;SDS011;28218;53.342;-6.216;2024-03-22T12:47:27;11.55;;;3.05;;
42590;SDS011;28218;53.342;-6.216;2024-03-22T12:49:55;7.95;;;1.60;;
42590;SDS011;28218;53.342;-6.216;2024-03-22T12:52:22;9.23;;;2.17;;
42590;SDS011;28218;53.342;-6.216;2024-03-22T12:54:47;9.00;;;1.73;;
42590;SDS011;28218;53.342;-6.216;2024-03-22T12:57:14;13.10;;;1.90;;
42590;SDS011;28218;53.342;-6.216;2024-03-22T12:59:40;11.27;;;3.15;;
42590;SDS011;28218;53.342;-6.216;2024-03-22T13:02:07;10.00;;;2.60;;
42590;SDS011;28218;53.342;-6.216;2024-03-22T13:04:33;9.07;;;2.03;;
42590;SDS011;28218;53.342;-6.216;2024-03-22T13:07:00;7.40;;;2.38;;
42590;SDS011;28218;53.342;-6.216;2024-03-22T13:09:26;13.13;;;1.80;;
42590;SDS011;28218;53.342;-6.216;2024-03-22T13:11:53;8.60;;;2.53;;
42590;SDS011;28218;53.342;-6.216;2024-03-22T13:14:19;5.75;;;1.70;;
42590;SDS011;28218;53.342;-6.216;2024-03-22T13:16:46;4.95;;;1.80;;
42590;SDS011;28218;53.342;-6.216;2024-03-22T13:19:12;5.97;;;1.33;;
42590;SDS011;28218;53.342;-6.216;2024-03-22T13:21:40;6.03;;;1.55;;
42590;SDS011;28218;53.342;-6.216;2024-03-22T13:24:06;10.98;;;2.63;;
42590;SDS011;28218;53.342;-6.216;2024-03-22T13:26:33;10.05;;;2.05;;
42590;SDS011;28218;53.342;-6.216;2024-03-22T13:28:59;9.68;;;1.95;;
42590;SDS011;28218;53.342;-6.216;2024-03-22T13:31:26;6.78;;;2.40;;
42590;SDS011;28218;53.342;-6.216;2024-03-22T13:33:52;7.15;;;1.50;;
42590;SDS011;28218;53.342;-6.216;2024-03-22T13:36:19;7.57;;;2.15;;
42590;SDS011;28218;53.342;-6.216;2024-03-22T13:38:45;8.20;;;1.88;;
42590;SDS011;28218;53.342;-6.216;2024-03-22T13:41:12;16.58;;;2.35;;
42590;SDS011;28218;53.342;-6.216;2024-03-22T13:43:38;5.78;;;1.20;;
42590;SDS011;28218;53.342;-6.216;2024-03-22T13:46:06;4.97;;;1.38;;
42590;SDS011;28218;53.342;-6.216;2024-03-22T13:48:32;9.10;;;1.23;;
42590;SDS011;28218;53.342;-6.216;2024-03-22T13:50:59;1.80;;;0.88;;
42590;SDS011;28218;53.342;-6.216;2024-03-22T13:53:26;5.80;;;2.05;;
42590;SDS011;28218;53.342;-6.216;2024-03-22T13:55:53;3.25;;;0.80;;
42590;SDS011;28218;53.342;-6.216;2024-03-22T13:58:20;6.97;;;1.30;;
42590;SDS011;28218;53.342;-6.216;2024-03-22T14:00:47;2.03;;;0.93;;
42590;SDS011;28218;53.342;-6.216;2024-03-22T14:03:13;5.00;;;1.08;;
42590;SDS011;28218;53.342;-6.216;2024-03-22T14:05:40;3.85;;;1.27;;
42590;SDS011;28218;53.342;-6.216;2024-03-22T14:08:06;8.32;;;1.15;;
42590;SDS011;28218;53.342;-6.216;2024-03-22T14:10:33;3.78;;;1.00;;
42590;SDS011;28218;53.342;-6.216;2024-03-22T14:13:00;3.78;;;1.60;;
42590;SDS011;28218;53.342;-6.216;2024-03-22T14:15:29;2.78;;;1.05;;
42590;SDS011;28218;53.342;-6.216;2024-03-22T14:17:57;3.38;;;1.10;;
42590;SDS011;28218;53.342;-6.216;2024-03-22T14:20:24;3.92;;;1.23;;
42590;SDS011;28218;53.342;-6.216;2024-03-22T14:22:50;4.30;;;1.20;;